sensor_id;sensor_type;location;lat;lon;timestamp;P1;durP1;ratioP1;P2;durP2;ratioP2
76749;SDS011;66447;35.844;14.468;2023-05-29T00:13:20;30.25;;;22.13;;
76749;SDS011;66447;35.844;14.468;2023-05-29T00:28:20;35.75;;;23.30;;
76749;SDS011;66447;35.844;14.468;2023-05-29T00:43:21;39.45;;;24.88;;
76749;SDS011;66447;35.844;14.468;2023-05-29T00:58:22;43.70;;;30.50;;
76749;SDS011;66447;35.844;14.468;2023-05-29T01:13:23;49.65;;;32.97;;
76749;SDS011;66447;35.844;14.468;2023-05-29T01:28:30;33.75;;;27.65;;
76749;SDS011;66447;35.844;14.468;2023-05-29T01:43:35;53.90;;;34.42;;
76749;SDS011;66447;35.844;14.468;2023-05-29T01:58:37;49.40;;;33.42;;
76749;SDS011;66447;35.844;14.468;2023-05-29T02:13:39;39.80;;;27.10;;
76749;SDS011;66447;35.844;14.468;2023-05-29T02:28:40;52.70;;;36.05;;
76749;SDS011;66447;35.844;14.468;2023-05-29T02:43:40;75.43;;;45.97;;
76749;SDS011;66447;35.844;14.468;2023-05-29T02:58:41;75.97;;;47.05;;
76749;SDS011;66447;35.844;14.468;2023-05-29T03:13:42;75.60;;;46.50;;
76749;SDS011;66447;35.844;14.468;2023-05-29T03:28:43;61.38;;;40.80;;
76749;SDS011;66447;35.844;14.468;2023-05-29T03:43:44;56.40;;;38.70;;
76749;SDS011;66447;35.844;14.468;2023-05-29T03:58:45;54.40;;;36.47;;
76749;SDS011;66447;35.844;14.468;2023-05-29T04:13:46;47.60;;;33.20;;
76749;SDS011;66447;35.844;14.468;2023-05-29T04:28:48;39.45;;;27.10;;
76749;SDS011;66447;35.844;14.468;2023-05-29T04:43:49;32.58;;;24.40;;
76749;SDS011;66447;35.844;14.468;2023-05-29T04:58:55;31.92;;;21.52;;
76749;SDS011;66447;35.844;14.468;2023-05-29T05:13:58;26.13;;;19.95;;
76749;SDS011;66447;35.844;14.468;2023-05-29T05:28:59;24.27;;;18.55;;
76749;SDS011;66447;35.844;14.468;2023-05-29T05:44:01;20.00;;;15.45;;
76749;SDS011;66447;35.844;14.468;2023-05-29T05:59:02;29.23;;;16.02;;
76749;SDS011;66447;35.844;14.468;2023-05-29T06:14:03;27.40;;;15.40;;
76749;SDS011;66447;35.844;14.468;2023-05-29T06:29:04;29.40;;;15.90;;
76749;SDS011;66447;35.844;14.468;2023-05-29T06:44:06;20.90;;;13.83;;
76749;SDS011;66447;35.844;14.468;2023-05-29T06:59:07;35.28;;;19.77;;
76749;SDS011;66447;35.844;14.468;2023-05-29T07:14:08;32.27;;;19.17;;
76749;SDS011;66447;35.844;14.468;2023-05-29T07:29:09;31.73;;;17.95;;
76749;SDS011;66447;35.844;14.468;2023-05-29T07:44:10;28.50;;;18.67;;
76749;SDS011;66447;35.844;14.468;2023-05-29T07:59:11;26.88;;;15.55;;
76749;SDS011;66447;35.844;14.468;2023-05-29T08:14:13;19.63;;;14.00;;
76749;SDS011;66447;35.844;14.468;2023-05-29T08:29:15;20.47;;;12.07;;
76749;SDS011;66447;35.844;14.468;2023-05-29T08:44:16;15.97;;;8.87;;
76749;SDS011;66447;35.844;14.468;2023-05-29T08:59:22;9.80;;;7.37;;
76749;SDS011;66447;35.844;14.468;2023-05-29T09:29:39;17.77;;;11.00;;
76749;SDS011;66447;35.844;14.468;2023-05-29T09:44:41;16.73;;;10.47;;
76749;SDS011;66447;35.844;14.468;2023-05-29T09:59:46;16.80;;;12.30;;
76749;SDS011;66447;35.844;14.468;2023-05-29T10:14:51;13.63;;;8.30;;
76749;SDS011;66447;35.844;14.468;2023-05-29T10:29:58;12.17;;;7.90;;
76749;SDS011;66447;35.844;14.468;2023-05-29T11:00:33;10.27;;;6.70;;
76749;SDS011;66447;35.844;14.468;2023-05-29T11:15:41;9.87;;;6.53;;
76749;SDS011;66447;35.844;14.468;2023-05-29T11:30:46;11.50;;;7.75;;
76749;SDS011;66447;35.844;14.468;2023-05-29T11:45:48;12.60;;;9.00;;
76749;SDS011;66447;35.844;14.468;2023-05-29T12:00:48;11.00;;;8.18;;
76749;SDS011;66447;35.844;14.468;2023-05-29T12:15:52;8.33;;;7.17;;
76749;SDS011;66447;35.844;14.468;2023-05-29T12:30:58;13.83;;;6.80;;
76749;SDS011;66447;35.844;14.468;2023-05-29T12:46:00;9.13;;;7.10;;
76749;SDS011;66447;35.844;14.468;2023-05-29T13:01:01;13.00;;;9.70;;
76749;SDS011;66447;35.844;14.468;2023-05-29T13:16:02;12.85;;;9.88;;
76749;SDS011;66447;35.844;14.468;2023-05-29T13:31:03;9.67;;;8.67;;
76749;SDS011;66447;35.844;14.468;2023-05-29T13:46:04;10.87;;;7.60;;
76749;SDS011;66447;35.844;14.468;2023-05-29T14:01:05;9.10;;;7.50;;
76749;SDS011;66447;35.844;14.468;2023-05-29T14:16:06;10.07;;;7.05;;
76749;SDS011;66447;35.844;14.468;2023-05-29T14:31:07;8.90;;;6.10;;
76749;SDS011;66447;35.844;14.468;2023-05-29T14:46:08;8.47;;;5.50;;
76749;SDS011;66447;35.844;14.468;2023-05-29T15:01:10;8.77;;;6.03;;
76749;SDS011;66447;35.844;14.468;2023-05-29T15:16:11;6.70;;;5.50;;
76749;SDS011;66447;35.844;14.468;2023-05-29T15:31:12;10.10;;;7.93;;
76749;SDS011;66447;35.844;14.468;2023-05-29T15:46:14;10.47;;;7.67;;
76749;SDS011;66447;35.844;14.468;2023-05-29T16:01:15;8.43;;;7.33;;
76749;SDS011;66447;35.844;14.468;2023-05-29T16:16:16;11.00;;;8.00;;
76749;SDS011;66447;35.844;14.468;2023-05-29T16:31:18;9.87;;;7.80;;
76749;SDS011;66447;35.844;14.468;2023-05-29T16:46:20;10.63;;;6.70;;
76749;SDS011;66447;35.844;14.468;2023-05-29T17:01:37;7.47;;;6.10;;
76749;SDS011;66447;35.844;14.468;2023-05-29T17:16:38;7.13;;;6.17;;
76749;SDS011;66447;35.844;14.468;2023-05-29T17:31:39;10.87;;;6.77;;
76749;SDS011;66447;35.844;14.468;2023-05-29T17:46:40;14.07;;;8.30;;
76749;SDS011;66447;35.844;14.468;2023-05-29T18:01:41;9.70;;;7.50;;
76749;SDS011;66447;35.844;14.468;2023-05-29T18:16:42;12.05;;;8.90;;
76749;SDS011;66447;35.844;14.468;2023-05-29T18:31:44;15.02;;;11.35;;
76749;SDS011;66447;35.844;14.468;2023-05-29T18:46:46;15.95;;;12.35;;
76749;SDS011;66447;35.844;14.468;2023-05-29T19:01:47;14.77;;;13.25;;
76749;SDS011;66447;35.844;14.468;2023-05-29T19:16:48;15.77;;;12.77;;
76749;SDS011;66447;35.844;14.468;2023-05-29T19:31:49;17.92;;;13.60;;
76749;SDS011;66447;35.844;14.468;2023-05-29T19:46:50;17.08;;;13.10;;
76749;SDS011;66447;35.844;14.468;2023-05-29T20:01:51;20.65;;;15.35;;
76749;SDS011;66447;35.844;14.468;2023-05-29T20:16:52;19.13;;;15.05;;
76749;SDS011;66447;35.844;14.468;2023-05-29T20:31:54;17.95;;;13.85;;
76749;SDS011;66447;35.844;14.468;2023-05-29T20:46:55;17.52;;;13.80;;
76749;SDS011;66447;35.844;14.468;2023-05-29T21:01:57;16.67;;;14.13;;
76749;SDS011;66447;35.844;14.468;2023-05-29T21:31:58;17.45;;;14.13;;
76749;SDS011;66447;35.844;14.468;2023-05-29T21:46:59;19.52;;;14.77;;
76749;SDS011;66447;35.844;14.468;2023-05-29T22:02:00;19.63;;;16.08;;
76749;SDS011;66447;35.844;14.468;2023-05-29T22:17:01;28.30;;;22.83;;
76749;SDS011;66447;35.844;14.468;2023-05-29T22:32:02;35.13;;;27.33;;
76749;SDS011;66447;35.844;14.468;2023-05-29T22:47:04;44.38;;;32.88;;
76749;SDS011;66447;35.844;14.468;2023-05-29T23:02:04;48.90;;;37.47;;
76749;SDS011;66447;35.844;14.468;2023-05-29T23:17:06;46.60;;;33.33;;
76749;SDS011;66447;35.844;14.468;2023-05-29T23:32:07;45.28;;;33.60;;
76749;SDS011;66447;35.844;14.468;2023-05-29T23:47:08;44.00;;;31.92;;
